Startpagina
METAR-TAF:

METAR-TAF

Vliegvelden :

Peer, België

Vliegbasis Kleine-Brogel

breedte: 51-10N, lengte: 005-28E, hoogte: 55 m

Actueel weer

Dit bericht is 22 minuten geleden gemaakt, om 04:55 UTC
Wind 6 kt uit het zuidzuidwesten
Temperatuur 2°C
Vochtigheid 93%
Druk 1008 hPa
Zicht 10 km of meer

METAR: EBBL 200455Z AUTO 21006KT 9999 FEW011/// 02/01 Q1008 BLU

Tijdstip: 06:17 (05:17 UTC)

Verwachting

Dit bericht is 13 uur en het 36 minuten geleden gemaakt, om 15:41 UTC
Verwachting geldig van 19 om 19 UTC tot 20 om 07 UTC
Wind 10 kt uit het zuidwesten
Zicht 10 km of meer
Verspreide wolken op 2500 ft
Wijzigt naar
van 20 om 04 UTC tot 20 om 06 UTC
Wind 10 kt uit het zuidzuidwesten
Zicht 10 km of meer
Weinig wolken op 1000 ft
Verspreide wolken op 1500 ft

TAF: EBBL 191541Z 1919/2007 23010KT 9999 SCT025 BECMG 2004/2006 21010KT 9999 FEW010 SCT015

Waarnemingen en weersverwachtingen van meer dan 4000 vliegvelden (METAR en TAF).

De beschikbare stations zijn de gele en rode punten op de kaart.

Ga met uw muis naar het station om de naam te zien.

Klik dan om waarnemingen en weersverwachtingen te zien.

kaart wijzigen: klik op de groene knoppen met een zwart kruis om in te zoomen, op de groene knop met een streepje om uit te zoomen of op de groene pijlen voor aangrenzende kaarten.


METAR-TAF: